Time;durP1;ratioP1;P1;durP2;ratioP2;P2;SDS_P1;SDS_P2;PMS_P1;PMS_P2;Temp;Humidity;BMP_temperature;BMP_pressure;BME280_temperature;BME280_humidity;BME280_pressure;Samples;Min_cycle;Max_cycle;Signal;HPM_P1;HPM_P2
2021/08/10 00:01:07;;;;;;;9.05;5.18;;;16.20;95.60;;;;;;5048535;28;20189;-67
2021/08/10 00:03:33;;;;;;;12.70;6.28;;;16.20;95.70;;;;;;5039961;28;20513;-68
2021/08/10 00:05:59;;;;;;;11.48;6.43;;;16.20;95.70;;;;;;5042216;28;20024;-67
2021/08/10 00:08:25;;;;;;;10.20;6.13;;;16.10;95.80;;;;;;5041221;28;20049;-68
2021/08/10 00:10:51;;;;;;;11.10;5.88;;;16.10;95.70;;;;;;5056563;28;20115;-68
2021/08/10 00:13:19;;;;;;;11.38;6.13;;;16.10;95.70;;;;;;5050781;28;20055;-68
2021/08/10 00:15:45;;;;;;;12.13;6.53;;;16.10;95.70;;;;;;5049507;28;20076;-67
2021/08/10 00:18:12;;;;;;;11.82;6.35;;;16.10;95.70;;;;;;5052956;28;20044;-67
2021/08/10 00:20:38;;;;;;;10.93;5.68;;;16.10;95.70;;;;;;5056332;28;20078;-68
2021/08/10 00:23:04;;;;;;;12.07;5.65;;;16.00;95.60;;;;;;5036908;28;20028;-68
2021/08/10 00:25:30;;;;;;;10.95;6.30;;;16.10;95.90;;;;;;5039750;28;20039;-68
2021/08/10 00:27:56;;;;;;;11.82;5.78;;;16.10;95.70;;;;;;5039967;28;20025;-68
2021/08/10 00:30:22;;;;;;;9.82;5.78;;;16.00;95.60;;;;;;5050805;28;20094;-67
2021/08/10 00:32:48;;;;;;;11.25;5.93;;;16.00;95.50;;;;;;5055789;28;20029;-68
2021/08/10 00:35:15;;;;;;;12.35;6.55;;;16.00;95.60;;;;;;5053681;28;20032;-67
2021/08/10 00:37:41;;;;;;;12.10;6.05;;;16.00;95.60;;;;;;5055695;28;20407;-68
2021/08/10 00:40:08;;;;;;;14.80;6.47;;;15.90;95.60;;;;;;5053092;28;20037;-67
2021/08/10 00:42:34;;;;;;;9.65;5.60;;;16.00;95.60;;;;;;5057647;28;20032;-67
2021/08/10 00:45:00;;;;;;;10.48;5.93;;;15.90;95.70;;;;;;5040719;28;20020;-68
2021/08/10 00:47:26;;;;;;;11.55;5.50;;;15.90;95.80;;;;;;5039841;28;20529;-68
2021/08/10 00:49:51;;;;;;;10.75;5.80;;;15.90;95.70;;;;;;5039484;28;20046;-67
2021/08/10 00:52:17;;;;;;;10.30;6.13;;;15.90;95.80;;;;;;5047189;28;20036;-67
2021/08/10 00:54:43;;;;;;;12.98;5.80;;;15.90;95.80;;;;;;5052211;28;20091;-67
2021/08/10 00:57:09;;;;;;;9.90;5.95;;;15.90;95.80;;;;;;5054689;28;20273;-68
2021/08/10 00:59:34;;;;;;;10.45;5.47;;;15.90;95.90;;;;;;5020949;28;20025;-68
2021/08/10 01:02:06;;;;;;;9.23;5.32;;;15.80;95.80;;;;;;5037494;28;20479;-68
2021/08/10 01:04:31;;;;;;;;;;;15.80;95.90;;;;;;5050243;28;20043;-67
2021/08/10 01:07:06;;;;;;;9.23;5.40;;;15.80;95.80;;;;;;5037666;28;19909;-68
2021/08/10 01:09:55;;;;;;;8.55;4.93;;;15.70;95.90;;;;;;5054351;28;20041;-68
2021/08/10 01:13:03;;;;;;;10.00;5.45;;;15.80;95.90;;;;;;5038949;28;20115;-68
2021/08/10 01:16:11;;;;;;;9.43;5.28;;;15.70;95.90;;;;;;5057903;28;20028;-68
2021/08/10 01:18:44;;;;;;;7.63;5.05;;;15.70;96.00;;;;;;5049964;28;20124;-68
2021/08/10 01:21:23;;;;;;;9.45;5.57;;;15.70;96.20;;;;;;5054329;28;20032;-67
2021/08/10 01:23:54;;;;;;;10.57;4.32;;;15.70;96.20;;;;;;5058301;28;20461;-67
2021/08/10 01:26:38;;;;;;;9.70;4.43;;;15.70;96.20;;;;;;5051157;28;20029;-68
2021/08/10 01:29:28;;;;;;;9.95;4.47;;;15.70;96.10;;;;;;5061905;28;20033;-67
2021/08/10 01:31:57;;;;;;;11.90;4.38;;;15.70;96.10;;;;;;5056096;28;20503;-68
2021/08/10 01:34:34;;;;;;;5.00;3.20;;;15.60;96.20;;;;;;5060798;28;20041;-68
2021/08/10 01:37:05;;;;;;;7.38;3.50;;;15.60;96.10;;;;;;5050910;28;20035;-68
2021/08/10 01:39:34;;;;;;;5.38;3.08;;;15.60;96.10;;;;;;5052439;28;20033;-68
2021/08/10 01:42:03;;;;;;;4.68;2.90;;;15.60;96.10;;;;;;5042617;28;20032;-68
2021/08/10 01:44:30;;;;;;;5.70;3.28;;;15.60;96.10;;;;;;5055961;28;20040;-67
2021/08/10 01:46:58;;;;;;;6.15;3.08;;;15.60;96.10;;;;;;5043007;28;20026;-67
2021/08/10 01:49:25;;;;;;;7.60;3.22;;;15.60;96.10;;;;;;5039434;28;20029;-67
2021/08/10 01:51:57;;;;;;;8.45;3.10;;;15.50;96.00;;;;;;5050852;28;20446;-67
2021/08/10 01:54:24;;;;;;;5.78;2.50;;;15.50;96.00;;;;;;5057383;28;20244;-67
2021/08/10 01:56:50;;;;;;;4.30;2.83;;;15.50;96.20;;;;;;5041836;28;20438;-68
2021/08/10 01:59:17;;;;;;;5.25;2.72;;;15.50;96.00;;;;;;5060175;28;20172;-67
2021/08/10 02:01:44;;;;;;;5.35;3.17;;;15.50;96.20;;;;;;5032975;28;20117;-69
2021/08/10 02:04:11;;;;;;;5.30;2.72;;;15.50;95.90;;;;;;5056785;28;20115;-67
2021/08/10 02:06:38;;;;;;;6.00;3.00;;;15.50;96.10;;;;;;5060396;28;20121;-67
2021/08/10 02:09:06;;;;;;;4.80;3.08;;;15.50;95.90;;;;;;5053863;28;20116;-68
2021/08/10 02:11:33;;;;;;;4.35;2.90;;;15.50;96.00;;;;;;5043144;28;20525;-68
2021/08/10 02:14:01;;;;;;;4.45;2.95;;;15.50;96.00;;;;;;5050829;28;20044;-68
2021/08/10 02:16:28;;;;;;;6.55;3.00;;;15.40;96.00;;;;;;5041464;28;20079;-68
2021/08/10 02:18:54;;;;;;;4.93;2.85;;;15.40;96.00;;;;;;5051955;28;20090;-67
2021/08/10 02:21:38;;;;;;;3.53;2.65;;;15.40;96.00;;;;;;5057818;28;20032;-68
2021/08/10 02:24:08;;;;;;;4.38;3.17;;;15.40;95.90;;;;;;5053898;28;20853;-67
2021/08/10 02:26:49;;;;;;;7.15;3.00;;;15.40;95.80;;;;;;5052674;28;20494;-67
2021/08/10 02:29:15;;;;;;;5.22;2.80;;;15.40;95.90;;;;;;5060862;28;20029;-67
2021/08/10 02:31:44;;;;;;;6.60;3.15;;;15.40;95.80;;;;;;5053713;28;20503;-67
2021/08/10 02:34:10;;;;;;;4.38;3.10;;;15.40;95.90;;;;;;5058925;28;20040;-67
2021/08/10 02:36:37;;;;;;;7.68;3.30;;;15.40;95.90;;;;;;5059620;28;20082;-67
2021/08/10 02:39:06;;;;;;;6.03;3.10;;;15.30;95.90;;;;;;5054489;28;20024;-67
2021/08/10 02:41:35;;;;;;;5.15;2.65;;;15.30;95.80;;;;;;5051225;28;20033;-67
2021/08/10 02:44:02;;;;;;;4.55;3.15;;;15.30;95.90;;;;;;5047304;28;20053;-68
2021/08/10 02:46:29;;;;;;;6.35;3.20;;;15.30;95.90;;;;;;5036371;28;20289;-67
2021/08/10 02:48:54;;;;;;;5.88;3.20;;;15.30;95.90;;;;;;5051261;28;20033;-67
2021/08/10 02:51:20;;;;;;;5.00;3.30;;;15.30;95.90;;;;;;5051476;28;20036;-68
2021/08/10 02:53:46;;;;;;;5.65;3.45;;;15.30;96.20;;;;;;5053921;28;20112;-68
2021/08/10 02:56:22;;;;;;;5.85;3.35;;;15.30;96.00;;;;;;5053580;28;20449;-67
2021/08/10 02:58:56;;;;;;;4.85;3.20;;;15.30;96.00;;;;;;5037488;28;20582;-67
2021/08/10 03:01:29;;;;;;;6.05;3.55;;;15.30;96.10;;;;;;5057581;28;20442;-67
2021/08/10 03:03:58;;;;;;;5.88;3.08;;;15.30;96.00;;;;;;5058027;28;20028;-67
2021/08/10 03:06:24;;;;;;;6.72;3.50;;;15.30;96.10;;;;;;5042520;28;20421;-67
2021/08/10 03:09:00;;;;;;;6.35;3.33;;;15.30;96.00;;;;;;5058595;28;20170;-68
2021/08/10 03:11:28;;;;;;;5.35;3.40;;;15.30;96.10;;;;;;5052468;28;20031;-67
2021/08/10 03:13:55;;;;;;;7.35;3.30;;;15.30;96.10;;;;;;5040431;28;20056;-67
2021/08/10 03:16:24;;;;;;;5.03;2.92;;;15.30;96.10;;;;;;5048411;28;20021;-68
2021/08/10 03:18:52;;;;;;;6.22;3.53;;;15.30;96.20;;;;;;5045766;28;20037;-68
2021/08/10 03:21:21;;;;;;;5.10;3.45;;;15.40;96.10;;;;;;5056745;28;20230;-68
2021/08/10 03:23:49;;;;;;;5.60;3.83;;;15.40;96.10;;;;;;5032360;28;20057;-68
2021/08/10 03:26:16;;;;;;;5.28;3.28;;;15.40;96.20;;;;;;5038565;28;20024;-67
2021/08/10 03:28:44;;;;;;;7.95;4.20;;;15.40;96.10;;;;;;5054533;28;20450;-68
2021/08/10 03:31:12;;;;;;;6.20;3.28;;;15.40;96.20;;;;;;5038786;28;20082;-67
2021/08/10 03:33:39;;;;;;;4.97;3.72;;;15.40;96.30;;;;;;5056975;28;20033;-67
2021/08/10 03:36:05;;;;;;;5.82;3.70;;;15.40;96.40;;;;;;5040829;28;20039;-67
2021/08/10 03:38:33;;;;;;;6.70;3.92;;;15.50;96.30;;;;;;5055560;28;20036;-68
2021/08/10 03:40:59;;;;;;;7.40;4.28;;;15.50;96.30;;;;;;5046127;28;20528;-67
2021/08/10 03:43:26;;;;;;;6.00;3.53;;;15.50;96.10;;;;;;5055996;28;20021;-68
2021/08/10 03:45:53;;;;;;;6.40;3.63;;;15.50;96.20;;;;;;5049594;28;20088;-67
2021/08/10 03:48:21;;;;;;;6.28;4.13;;;15.50;96.20;;;;;;5053069;28;20090;-68
2021/08/10 03:50:51;;;;;;;8.23;3.70;;;15.50;96.20;;;;;;5055116;28;20039;-68
2021/08/10 03:53:20;;;;;;;6.22;3.70;;;15.50;96.30;;;;;;5052029;28;20035;-68
2021/08/10 03:55:49;;;;;;;6.38;3.75;;;15.50;96.30;;;;;;5058406;28;20056;-67
2021/08/10 03:58:16;;;;;;;6.35;3.75;;;15.50;96.40;;;;;;5048695;28;20032;-67
2021/08/10 04:00:42;;;;;;;7.68;3.75;;;15.50;96.40;;;;;;5051531;28;20477;-68
2021/08/10 04:03:10;;;;;;;7.93;3.60;;;15.50;96.40;;;;;;5060118;28;20028;-68
2021/08/10 04:05:39;;;;;;;11.23;3.67;;;15.50;96.40;;;;;;5039569;28;20065;-68
2021/08/10 04:08:09;;;;;;;7.18;3.65;;;15.50;96.20;;;;;;5037049;28;20166;-68
2021/08/10 04:10:38;;;;;;;7.20;4.38;;;15.50;96.30;;;;;;5052847;28;20466;-67
2021/08/10 04:13:04;;;;;;;5.97;4.38;;;15.50;96.20;;;;;;5048775;28;20034;-68
2021/08/10 04:15:30;;;;;;;8.85;5.18;;;15.60;96.20;;;;;;5050187;28;20025;-68
2021/08/10 04:17:57;;;;;;;7.72;4.85;;;15.60;96.20;;;;;;5052855;28;20021;-68
2021/08/10 04:20:23;;;;;;;6.35;4.30;;;15.50;96.20;;;;;;5049277;28;20123;-68
2021/08/10 04:22:49;;;;;;;6.65;3.75;;;15.50;96.20;;;;;;5052917;28;20559;-68
2021/08/10 04:25:14;;;;;;;5.18;3.42;;;15.50;96.20;;;;;;5036750;28;20389;-68
2021/08/10 04:27:40;;;;;;;9.25;4.15;;;15.50;96.20;;;;;;5047519;28;20031;-67
2021/08/10 04:30:06;;;;;;;5.90;3.63;;;15.50;96.20;;;;;;5033490;28;20075;-68
2021/08/10 04:32:32;;;;;;;5.95;3.42;;;15.50;96.30;;;;;;5046294;28;20068;-68
2021/08/10 04:34:58;;;;;;;8.27;4.20;;;15.50;96.40;;;;;;5055398;28;20044;-68
2021/08/10 04:37:24;;;;;;;6.60;3.85;;;15.60;96.50;;;;;;5049492;28;20108;-68
2021/08/10 04:39:49;;;;;;;5.85;3.10;;;15.60;96.40;;;;;;5033151;28;20116;-68
2021/08/10 04:42:15;;;;;;;6.93;3.97;;;15.60;96.50;;;;;;5043956;28;20025;-68
2021/08/10 04:44:41;;;;;;;7.22;3.83;;;15.60;96.50;;;;;;5048432;28;20131;-68
2021/08/10 04:47:07;;;;;;;6.68;3.85;;;15.60;96.60;;;;;;5047722;28;20083;-68
2021/08/10 04:49:32;;;;;;;5.88;4.30;;;15.60;96.60;;;;;;5037829;28;20451;-67
2021/08/10 04:51:58;;;;;;;5.90;3.92;;;15.60;96.60;;;;;;5050679;28;20021;-67
2021/08/10 04:54:24;;;;;;;6.38;4.18;;;15.70;96.60;;;;;;5061367;28;20487;-68
2021/08/10 04:56:49;;;;;;;6.15;3.72;;;15.70;96.60;;;;;;5031637;28;20037;-68
2021/08/10 04:59:15;;;;;;;5.53;3.88;;;15.80;96.80;;;;;;5042003;28;20033;-69
2021/08/10 05:01:44;;;;;;;6.85;4.00;;;15.90;96.60;;;;;;5023264;28;20387;-68
2021/08/10 05:04:09;;;;;;;6.57;4.10;;;16.10;96.30;;;;;;5053276;28;20036;-70
2021/08/10 05:06:36;;;;;;;5.68;3.85;;;16.10;96.10;;;;;;5050164;28;20024;-68
2021/08/10 05:09:03;;;;;;;7.38;4.50;;;16.10;96.10;;;;;;5039001;28;20421;-68
2021/08/10 05:11:29;;;;;;;6.68;3.95;;;16.10;96.20;;;;;;5043013;28;20029;-68
2021/08/10 05:13:55;;;;;;;7.07;4.30;;;16.10;96.10;;;;;;5042145;28;20032;-69
2021/08/10 05:16:20;;;;;;;7.25;4.50;;;16.10;96.00;;;;;;5036734;28;20044;-68
2021/08/10 05:18:48;;;;;;;8.40;4.30;;;16.10;95.90;;;;;;5057095;28;20376;-68
2021/08/10 05:21:16;;;;;;;13.63;4.88;;;16.10;96.10;;;;;;5023087;28;20024;-68
2021/08/10 05:23:42;;;;;;;7.45;4.50;;;16.10;96.20;;;;;;5046135;28;20108;-67
2021/08/10 05:26:07;;;;;;;7.53;4.05;;;16.10;96.20;;;;;;5038841;28;20108;-68
2021/08/10 05:28:33;;;;;;;7.57;4.32;;;16.10;96.10;;;;;;5038056;28;20578;-68
2021/08/10 05:30:59;;;;;;;11.43;5.00;;;16.10;96.10;;;;;;5054103;28;20025;-68
2021/08/10 05:33:24;;;;;;;8.35;4.50;;;16.10;96.40;;;;;;5054647;28;20039;-69
2021/08/10 05:35:50;;;;;;;8.73;4.20;;;16.10;96.30;;;;;;5055626;28;20078;-70
2021/08/10 05:38:16;;;;;;;9.73;4.50;;;16.10;96.10;;;;;;5056499;28;20082;-68
2021/08/10 05:40:42;;;;;;;9.98;4.75;;;16.10;96.10;;;;;;5029060;28;20518;-70
2021/08/10 05:43:07;;;;;;;9.07;4.47;;;16.10;96.00;;;;;;5036823;28;20032;-70
2021/08/10 05:45:34;;;;;;;10.32;4.93;;;16.10;96.00;;;;;;5050102;28;20033;-69
2021/08/10 05:47:59;;;;;;;7.10;4.10;;;16.10;95.90;;;;;;5039095;28;20033;-69
2021/08/10 05:50:25;;;;;;;8.48;3.72;;;16.20;96.00;;;;;;5054297;28;20033;-69
2021/08/10 05:52:52;;;;;;;8.68;4.25;;;16.10;96.00;;;;;;5057975;28;20048;-69
2021/08/10 05:55:17;;;;;;;7.07;3.95;;;16.20;96.00;;;;;;5050161;28;20029;-70
2021/08/10 05:57:43;;;;;;;10.43;4.85;;;16.30;95.70;;;;;;5049768;28;20039;-68
2021/08/10 06:00:10;;;;;;;9.63;4.65;;;16.30;95.80;;;;;;5054557;28;20029;-69
2021/08/10 06:02:36;;;;;;;10.38;4.63;;;16.30;95.80;;;;;;5048323;28;20475;-68
2021/08/10 06:05:03;;;;;;;8.27;5.20;;;16.30;95.80;;;;;;5037973;28;20029;-69
2021/08/10 06:07:29;;;;;;;7.05;4.40;;;16.30;95.80;;;;;;5057394;28;20100;-69
2021/08/10 06:09:55;;;;;;;10.80;4.70;;;16.30;95.90;;;;;;5036518;28;20081;-69
2021/08/10 06:12:21;;;;;;;9.05;4.72;;;16.30;96.00;;;;;;5026074;28;20164;-69
2021/08/10 06:14:46;;;;;;;9.35;4.90;;;16.30;95.80;;;;;;5039977;28;20527;-69
2021/08/10 06:17:12;;;;;;;7.45;4.90;;;16.40;95.70;;;;;;5054478;28;20453;-69
2021/08/10 06:19:38;;;;;;;7.35;4.55;;;16.30;95.70;;;;;;5057698;28;20068;-69
2021/08/10 06:22:03;;;;;;;7.28;4.60;;;16.30;96.20;;;;;;5043003;28;20025;-68
2021/08/10 06:24:31;;;;;;;11.07;5.40;;;16.30;96.10;;;;;;5043881;28;20107;-68
2021/08/10 06:26:57;;;;;;;6.05;4.05;;;16.30;96.00;;;;;;5048235;28;20090;-71
2021/08/10 06:29:22;;;;;;;8.63;4.05;;;16.30;96.00;;;;;;5047148;28;20099;-69
2021/08/10 06:31:48;;;;;;;7.45;4.00;;;16.40;96.00;;;;;;5051405;28;20120;-69
2021/08/10 06:34:14;;;;;;;8.95;4.40;;;16.40;95.70;;;;;;5054594;28;20029;-70
2021/08/10 06:36:42;;;;;;;7.03;4.20;;;16.40;95.70;;;;;;5057291;28;20094;-68
2021/08/10 06:39:08;;;;;;;6.78;3.80;;;16.40;95.60;;;;;;5034834;28;20060;-68
2021/08/10 06:41:34;;;;;;;7.35;3.45;;;16.40;95.70;;;;;;5039090;28;20029;-69
2021/08/10 06:43:59;;;;;;;6.88;4.13;;;16.50;95.80;;;;;;5047761;28;20493;-70
2021/08/10 06:46:26;;;;;;;9.75;3.95;;;16.50;95.60;;;;;;5056557;28;20025;-69
2021/08/10 06:48:52;;;;;;;7.30;4.32;;;16.50;95.40;;;;;;5047116;28;20543;-69
2021/08/10 06:51:18;;;;;;;7.47;3.70;;;16.60;95.30;;;;;;5059029;28;20028;-67
2021/08/10 06:53:44;;;;;;;9.52;4.90;;;16.60;95.40;;;;;;5032975;28;20037;-69
2021/08/10 06:56:10;;;;;;;7.47;4.10;;;16.70;95.10;;;;;;5038258;28;20037;-70
2021/08/10 06:58:35;;;;;;;9.90;4.55;;;16.60;95.10;;;;;;5036120;28;20036;-69
2021/08/10 07:01:01;;;;;;;9.75;4.82;;;16.60;95.00;;;;;;5038068;28;20502;-69
2021/08/10 07:03:27;;;;;;;6.78;4.20;;;16.60;95.30;;;;;;5047304;28;20032;-69
2021/08/10 07:05:52;;;;;;;7.30;4.43;;;16.60;95.20;;;;;;5040536;28;20028;-69
2021/08/10 07:08:18;;;;;;;9.10;4.30;;;16.60;95.30;;;;;;5045731;28;20040;-70
2021/08/10 07:10:47;;;;;;;7.85;4.20;;;16.70;95.40;;;;;;5037001;28;20224;-69
2021/08/10 07:13:12;;;;;;;6.63;3.63;;;16.70;95.40;;;;;;5036437;28;20112;-68
2021/08/10 07:15:38;;;;;;;6.05;4.05;;;16.80;95.30;;;;;;5053667;28;20029;-68
2021/08/10 07:18:04;;;;;;;9.68;4.32;;;16.80;95.30;;;;;;5050427;28;20047;-70
2021/08/10 07:20:29;;;;;;;8.38;3.97;;;16.90;95.30;;;;;;5038305;28;20033;-69
2021/08/10 07:22:55;;;;;;;8.98;3.97;;;16.90;95.20;;;;;;5051336;28;20029;-69
2021/08/10 07:25:21;;;;;;;11.75;4.97;;;17.00;95.20;;;;;;5048126;28;20395;-68
2021/08/10 07:27:48;;;;;;;8.75;5.07;;;17.00;95.00;;;;;;5032505;28;20029;-69
2021/08/10 07:30:14;;;;;;;6.40;4.00;;;17.00;94.90;;;;;;5038509;28;20025;-70
2021/08/10 07:32:40;;;;;;;7.50;4.28;;;17.10;94.80;;;;;;5048130;28;20036;-70
2021/08/10 07:35:06;;;;;;;8.40;3.95;;;17.20;94.80;;;;;;5039779;28;20027;-69
2021/08/10 07:37:32;;;;;;;7.53;4.57;;;17.20;94.80;;;;;;5052529;28;20043;-70
2021/08/10 07:39:58;;;;;;;10.35;4.45;;;17.20;94.90;;;;;;5050910;28;20037;-70
2021/08/10 07:42:24;;;;;;;6.72;3.58;;;17.20;94.80;;;;;;5050141;28;20025;-71
2021/08/10 07:44:49;;;;;;;10.15;4.28;;;17.30;94.80;;;;;;5054988;28;20033;-70
2021/08/10 07:47:16;;;;;;;8.70;3.50;;;17.40;94.50;;;;;;5052366;28;20112;-71
2021/08/10 07:49:41;;;;;;;5.57;3.35;;;17.30;94.50;;;;;;5031942;28;20029;-70
2021/08/10 07:52:07;;;;;;;7.85;4.43;;;17.40;94.50;;;;;;5049997;28;20056;-70
2021/08/10 07:54:33;;;;;;;7.88;3.85;;;17.40;94.10;;;;;;5022631;28;20035;-70
2021/08/10 07:57:00;;;;;;;6.47;3.88;;;17.40;94.10;;;;;;5055968;28;20037;-69
2021/08/10 07:59:25;;;;;;;4.93;2.83;;;17.40;94.10;;;;;;5045345;28;20398;-71
2021/08/10 08:01:52;;;;;;;4.80;2.95;;;17.40;94.20;;;;;;5046817;28;20036;-70
2021/08/10 08:04:18;;;;;;;13.32;3.92;;;17.50;94.30;;;;;;5056247;28;20078;-70
2021/08/10 08:06:43;;;;;;;7.43;4.10;;;17.60;94.30;;;;;;5053625;28;20349;-71
2021/08/10 08:09:09;;;;;;;7.55;4.15;;;17.60;93.90;;;;;;5043612;28;20112;-70
2021/08/10 08:11:35;;;;;;;6.72;3.53;;;17.70;93.60;;;;;;5045927;28;20458;-70
2021/08/10 08:14:00;;;;;;;4.70;3.30;;;17.60;93.80;;;;;;5042628;28;20093;-68
2021/08/10 08:16:26;;;;;;;6.35;3.53;;;17.60;93.80;;;;;;5048566;28;20029;-69
2021/08/10 08:18:52;;;;;;;6.05;3.03;;;17.60;93.90;;;;;;5028126;28;20505;-70
2021/08/10 08:21:18;;;;;;;4.85;2.88;;;17.60;94.00;;;;;;5052724;28;20513;-70
2021/08/10 08:23:43;;;;;;;7.32;3.45;;;17.50;94.10;;;;;;5036128;28;20383;-70
2021/08/10 08:26:09;;;;;;;9.63;4.05;;;17.40;94.20;;;;;;5047533;28;20078;-70
2021/08/10 08:28:35;;;;;;;7.78;3.97;;;17.40;94.20;;;;;;5037390;28;20170;-70
2021/08/10 08:31:02;;;;;;;6.00;3.80;;;17.30;94.40;;;;;;5051949;28;20048;-70
2021/08/10 08:33:28;;;;;;;7.22;3.95;;;17.30;94.40;;;;;;5049477;28;20033;-71
2021/08/10 08:35:54;;;;;;;7.53;3.85;;;17.30;94.40;;;;;;5058015;28;20025;-70
2021/08/10 08:38:21;;;;;;;7.78;4.22;;;17.40;94.40;;;;;;5014973;28;20028;-70
2021/08/10 08:40:47;;;;;;;8.25;3.72;;;17.60;94.40;;;;;;5034403;28;20056;-68
2021/08/10 08:43:17;;;;;;;9.68;4.80;;;17.80;94.20;;;;;;5051200;28;20033;-70
2021/08/10 08:45:43;;;;;;;8.35;3.75;;;18.00;93.70;;;;;;5039943;28;20040;-70
2021/08/10 08:48:13;;;;;;;8.30;4.30;;;18.20;93.40;;;;;;5030085;28;20074;-70
2021/08/10 08:50:41;;;;;;;5.35;3.03;;;18.30;93.10;;;;;;5028517;28;20036;-70
2021/08/10 08:53:10;;;;;;;10.60;3.88;;;18.50;93.10;;;;;;5044479;28;20025;-69
2021/08/10 08:55:37;;;;;;;6.80;3.72;;;18.50;92.70;;;;;;5038573;28;20025;-69
2021/08/10 08:58:03;;;;;;;7.28;4.07;;;18.60;92.60;;;;;;5047495;28;20801;-70
2021/08/10 09:00:29;;;;;;;5.63;3.70;;;18.80;92.30;;;;;;5056264;28;20116;-70
2021/08/10 09:02:54;;;;;;;5.90;3.40;;;18.80;92.10;;;;;;5055911;28;20390;-70
2021/08/10 09:05:20;;;;;;;7.70;3.88;;;18.80;92.30;;;;;;5055534;28;20076;-70
2021/08/10 09:07:46;;;;;;;6.82;3.10;;;18.80;91.70;;;;;;5029751;28;20187;-71
2021/08/10 09:10:14;;;;;;;5.72;2.90;;;18.80;91.90;;;;;;5045393;28;20059;-70
2021/08/10 09:12:44;;;;;;;5.57;3.25;;;18.70;92.20;;;;;;5028895;28;20033;-70
2021/08/10 09:15:10;;;;;;;7.05;2.97;;;18.70;92.50;;;;;;5048907;28;20103;-71
2021/08/10 09:17:46;;;;;;;5.68;3.28;;;18.70;92.50;;;;;;5034553;28;20051;-70
2021/08/10 09:20:21;;;;;;;5.60;3.50;;;18.80;92.50;;;;;;5036352;28;20033;-70
2021/08/10 09:22:49;;;;;;;8.38;3.28;;;18.90;92.00;;;;;;5056414;28;20112;-68
2021/08/10 09:25:16;;;;;;;6.18;2.97;;;19.00;92.10;;;;;;5055180;28;20021;-69
2021/08/10 09:27:42;;;;;;;4.88;2.80;;;19.00;92.00;;;;;;5047236;28;20028;-67
2021/08/10 09:30:14;;;;;;;6.93;2.83;;;18.90;91.70;;;;;;5050007;28;20086;-69
2021/08/10 09:32:52;;;;;;;4.78;2.90;;;19.00;91.70;;;;;;5055180;28;20068;-68
2021/08/10 09:35:21;;;;;;;9.60;3.90;;;19.10;91.60;;;;;;5049549;28;20091;-69
2021/08/10 09:38:02;;;;;;;4.05;2.40;;;19.30;91.00;;;;;;5023549;28;20068;-69
2021/08/10 09:40:33;;;;;;;5.75;2.83;;;19.40;91.10;;;;;;5041227;28;20029;-67
2021/08/10 09:43:30;;;;;;;7.43;2.65;;;19.50;90.90;;;;;;5037007;28;20029;-69
2021/08/10 09:46:32;;;;;;;4.93;2.53;;;19.50;90.70;;;;;;5038952;28;20120;-69
2021/08/10 09:48:58;;;;;;;8.32;2.88;;;19.30;90.90;;;;;;5053415;28;20033;-68
2021/08/10 09:51:28;;;;;;;5.20;2.95;;;19.30;91.10;;;;;;5053916;28;20025;-69
2021/08/10 09:54:14;;;;;;;7.90;3.60;;;19.30;91.20;;;;;;5057265;28;20041;-68
2021/08/10 09:56:52;;;;;;;7.13;3.20;;;19.30;90.90;;;;;;5034632;28;20041;-68
2021/08/10 09:59:27;;;;;;;5.15;2.58;;;19.50;90.70;;;;;;5049459;28;20052;-69
2021/08/10 10:01:57;;;;;;;7.22;3.20;;;19.60;90.40;;;;;;5050642;28;20033;-69
2021/08/10 10:04:30;;;;;;;10.95;3.53;;;19.70;88.60;;;;;;5019918;28;20021;-68
2021/08/10 10:07:10;;;;;;;5.00;2.80;;;19.70;89.00;;;;;;5059592;28;20048;-69
2021/08/10 10:09:36;;;;;;;11.82;4.10;;;19.80;88.80;;;;;;5040113;28;20425;-69
2021/08/10 10:12:04;;;;;;;6.28;3.65;;;19.70;87.40;;;;;;5056531;28;20028;-68
2021/08/10 10:14:29;;;;;;;5.35;3.67;;;19.60;87.50;;;;;;5055886;28;20029;-69
2021/08/10 10:16:57;;;;;;;5.68;3.58;;;19.60;88.30;;;;;;5055915;28;20085;-69
2021/08/10 10:19:23;;;;;;;5.63;3.42;;;19.60;88.30;;;;;;5057709;28;20032;-69
2021/08/10 10:21:55;;;;;;;8.32;4.10;;;19.60;88.60;;;;;;5042237;28;20111;-69
2021/08/10 10:24:22;;;;;;;8.38;4.10;;;19.50;88.30;;;;;;5041936;28;20182;-69
2021/08/10 10:27:00;;;;;;;6.32;3.53;;;19.50;88.70;;;;;;5040443;28;20263;-69
2021/08/10 10:29:27;;;;;;;6.90;3.50;;;19.60;87.30;;;;;;5050251;28;20037;-69
2021/08/10 10:31:53;;;;;;;5.93;3.67;;;19.70;86.50;;;;;;5035534;28;20108;-69
2021/08/10 10:34:19;;;;;;;6.88;3.58;;;19.80;87.10;;;;;;5056433;28;20465;-69
2021/08/10 10:36:46;;;;;;;7.70;3.85;;;19.90;86.50;;;;;;5058617;28;20021;-69
2021/08/10 10:39:18;;;;;;;6.50;4.28;;;20.10;86.50;;;;;;5050331;28;20081;-68
2021/08/10 10:41:45;;;;;;;6.07;4.30;;;20.30;84.80;;;;;;5057386;28;20039;-67
2021/08/10 10:44:11;;;;;;;7.00;4.68;;;20.50;85.70;;;;;;5053362;28;20041;-68
2021/08/10 10:46:39;;;;;;;6.47;4.00;;;20.70;83.30;;;;;;5053949;28;20027;-67
2021/08/10 10:49:07;;;;;;;6.70;3.88;;;20.70;82.70;;;;;;5020629;28;20090;-69
2021/08/10 10:51:38;;;;;;;6.95;4.22;;;20.70;82.50;;;;;;5060165;28;20425;-67
2021/08/10 10:54:27;;;;;;;5.38;3.97;;;20.80;82.10;;;;;;5033327;28;20511;-68
2021/08/10 10:57:00;;;;;;;6.60;3.60;;;20.90;82.50;;;;;;5038961;28;20148;-68
2021/08/10 10:59:34;;;;;;;5.40;3.22;;;20.90;81.40;;;;;;5047007;28;20113;-69
2021/08/10 11:02:17;;;;;;;7.43;3.83;;;20.90;81.20;;;;;;5021673;28;20024;-68
2021/08/10 11:05:08;;;;;;;5.82;3.70;;;20.90;81.90;;;;;;5052959;28;20199;-70
2021/08/10 11:07:38;;;;;;;8.18;3.90;;;20.80;79.60;;;;;;5056342;28;20036;-71
2021/08/10 11:10:10;;;;;;;7.07;3.72;;;20.60;80.70;;;;;;5051028;28;20025;-70
2021/08/10 11:12:47;;;;;;;6.45;3.40;;;20.40;81.40;;;;;;5041778;28;20022;-72
2021/08/10 11:15:20;;;;;;;6.40;3.60;;;20.30;81.90;;;;;;5045858;28;20464;-70
2021/08/10 11:18:08;;;;;;;4.75;3.05;;;20.40;82.00;;;;;;5056140;28;20112;-72
2021/08/10 11:20:39;;;;;;;5.78;3.03;;;20.40;82.80;;;;;;5041604;28;20033;-68
2021/08/10 11:23:21;;;;;;;;;;;20.30;83.70;;;;;;5042450;28;20070;-69
2021/08/10 11:26:14;;;;;;;6.80;3.67;;;20.40;84.80;;;;;;5048257;28;19909;-70
2021/08/10 11:28:52;;;;;;;6.47;3.40;;;20.40;85.00;;;;;;5018630;28;20545;-69
2021/08/10 11:31:42;;;;;;;4.93;3.47;;;20.40;85.30;;;;;;5038966;28;20024;-69
2021/08/10 11:34:37;;;;;;;8.00;3.55;;;20.20;86.00;;;;;;5034888;28;20037;-75
2021/08/10 11:37:24;;;;;;;5.43;3.60;;;20.00;86.70;;;;;;5024173;28;20045;-70
2021/08/10 11:40:12;;;;;;;5.82;3.78;;;19.80;87.20;;;;;;5037568;28;20021;-69
2021/08/10 11:42:42;;;;;;;5.70;3.33;;;19.70;88.90;;;;;;5029345;28;20115;-73
2021/08/10 11:45:08;;;;;;;5.90;3.80;;;19.50;89.80;;;;;;5045126;28;20029;-73
2021/08/10 11:47:34;;;;;;;5.88;3.97;;;19.40;90.40;;;;;;5034770;28;20025;-73
2021/08/10 11:50:00;;;;;;;6.05;3.97;;;19.40;90.70;;;;;;5056845;28;20042;-73
2021/08/10 11:52:40;;;;;;;7.40;3.70;;;19.40;90.90;;;;;;5057540;28;20053;-73
2021/08/10 11:55:06;;;;;;;6.22;4.50;;;19.50;91.00;;;;;;5049483;28;20026;-73
2021/08/10 11:57:35;;;;;;;8.40;3.90;;;19.70;91.10;;;;;;5038110;28;20046;-73
2021/08/10 12:00:13;;;;;;;7.13;4.28;;;19.90;90.80;;;;;;5048438;28;20029;-73
2021/08/10 12:02:44;;;;;;;5.93;3.95;;;20.00;90.70;;;;;;5026422;28;20284;-73
2021/08/10 12:05:10;;;;;;;5.72;4.03;;;19.90;90.70;;;;;;5050544;28;20043;-73
2021/08/10 12:07:36;;;;;;;10.35;4.47;;;19.80;90.90;;;;;;5054255;28;20032;-72
2021/08/10 12:10:03;;;;;;;6.45;3.67;;;19.80;90.80;;;;;;5054987;28;20020;-72
2021/08/10 12:12:33;;;;;;;6.47;3.80;;;19.60;90.80;;;;;;5042126;28;20033;-73
2021/08/10 12:15:00;;;;;;;7.80;3.33;;;19.50;90.80;;;;;;5041415;28;20510;-73
2021/08/10 12:17:28;;;;;;;5.03;3.53;;;19.30;91.00;;;;;;5047369;28;20025;-73
2021/08/10 12:19:54;;;;;;;4.20;3.08;;;19.10;91.10;;;;;;5038777;28;20025;-72
2021/08/10 12:22:26;;;;;;;6.35;3.40;;;19.00;90.80;;;;;;5022594;28;20089;-72
2021/08/10 12:24:54;;;;;;;4.18;3.10;;;18.80;91.10;;;;;;5033385;28;20091;-72
2021/08/10 12:27:27;;;;;;;4.72;3.33;;;18.60;91.70;;;;;;5036895;28;20123;-71
2021/08/10 12:29:53;;;;;;;3.45;2.97;;;18.50;92.00;;;;;;5038436;28;20051;-73
2021/08/10 12:32:27;;;;;;;3.25;2.80;;;18.40;92.10;;;;;;5041035;28;20495;-72
2021/08/10 12:34:53;;;;;;;4.45;2.90;;;18.40;92.40;;;;;;5050830;28;20055;-73
2021/08/10 12:37:30;;;;;;;4.45;3.10;;;18.50;92.80;;;;;;5038081;28;20033;-72
2021/08/10 12:39:55;;;;;;;7.53;3.22;;;18.50;93.50;;;;;;5047391;28;20032;-72
2021/08/10 12:42:22;;;;;;;4.15;2.90;;;18.40;93.60;;;;;;5053518;28;20035;-73
2021/08/10 12:44:50;;;;;;;4.43;2.85;;;18.90;94.00;;;;;;5051720;28;20025;-73
2021/08/10 12:47:16;;;;;;;4.57;2.50;;;20.30;92.60;;;;;;5040692;28;20036;-73
2021/08/10 12:49:43;;;;;;;3.45;2.10;;;22.10;90.60;;;;;;5036727;28;20398;-73
2021/08/10 12:52:16;;;;;;;3.95;2.20;;;23.60;86.10;;;;;;5043874;28;20529;-73
2021/08/10 12:54:52;;;;;;;3.88;1.88;;;24.80;79.00;;;;;;5055624;28;20572;-73